sensor_id;sensor_type;location;lat;lon;timestamp;temperature;humidity
20041;DHT22;10181;48.072;9.884;2023-02-28T00:01:20;-2.20;99.90
20041;DHT22;10181;48.072;9.884;2023-02-28T00:03:45;-2.30;99.90
20041;DHT22;10181;48.072;9.884;2023-02-28T00:06:11;-2.10;99.90
20041;DHT22;10181;48.072;9.884;2023-02-28T00:08:37;-2.20;99.90
20041;DHT22;10181;48.072;9.884;2023-02-28T00:11:09;-2.20;99.90
20041;DHT22;10181;48.072;9.884;2023-02-28T00:13:38;-2.20;99.90
20041;DHT22;10181;48.072;9.884;2023-02-28T00:16:13;-2.20;99.90
20041;DHT22;10181;48.072;9.884;2023-02-28T00:18:39;-2.20;99.90
20041;DHT22;10181;48.072;9.884;2023-02-28T00:21:06;-2.10;99.90
20041;DHT22;10181;48.072;9.884;2023-02-28T00:23:31;-2.10;99.90
20041;DHT22;10181;48.072;9.884;2023-02-28T00:25:57;-2.10;99.90
20041;DHT22;10181;48.072;9.884;2023-02-28T00:28:23;-2.10;99.90
20041;DHT22;10181;48.072;9.884;2023-02-28T00:30:49;-2.10;99.90
20041;DHT22;10181;48.072;9.884;2023-02-28T00:33:15;-2.10;99.90
20041;DHT22;10181;48.072;9.884;2023-02-28T00:35:40;-2.10;99.90
20041;DHT22;10181;48.072;9.884;2023-02-28T00:38:06;-2.10;99.90
20041;DHT22;10181;48.072;9.884;2023-02-28T00:40:32;-2.10;99.90
20041;DHT22;10181;48.072;9.884;2023-02-28T00:42:57;-2.10;99.90
20041;DHT22;10181;48.072;9.884;2023-02-28T00:45:23;-2.10;99.90
20041;DHT22;10181;48.072;9.884;2023-02-28T00:47:48;-2.10;99.90
20041;DHT22;10181;48.072;9.884;2023-02-28T00:50:17;-2.10;99.90
20041;DHT22;10181;48.072;9.884;2023-02-28T00:52:44;-2.10;99.90
20041;DHT22;10181;48.072;9.884;2023-02-28T00:55:10;-2.10;99.90
20041;DHT22;10181;48.072;9.884;2023-02-28T00:57:35;-2.00;99.90
20041;DHT22;10181;48.072;9.884;2023-02-28T01:00:02;-2.10;99.90
20041;DHT22;10181;48.072;9.884;2023-02-28T01:02:29;-2.00;99.90
20041;DHT22;10181;48.072;9.884;2023-02-28T01:04:54;-2.00;99.90
20041;DHT22;10181;48.072;9.884;2023-02-28T01:07:22;-2.00;99.90
20041;DHT22;10181;48.072;9.884;2023-02-28T01:09:48;-2.00;99.90
20041;DHT22;10181;48.072;9.884;2023-02-28T01:12:13;-2.00;99.90
20041;DHT22;10181;48.072;9.884;2023-02-28T01:14:39;-2.00;99.90
20041;DHT22;10181;48.072;9.884;2023-02-28T01:17:05;-2.00;99.90
20041;DHT22;10181;48.072;9.884;2023-02-28T01:19:30;-2.00;99.90
20041;DHT22;10181;48.072;9.884;2023-02-28T01:21:56;-2.00;99.90
20041;DHT22;10181;48.072;9.884;2023-02-28T01:24:22;-1.90;99.90
20041;DHT22;10181;48.072;9.884;2023-02-28T01:26:47;-2.00;99.90
20041;DHT22;10181;48.072;9.884;2023-02-28T01:29:13;-2.00;99.90
20041;DHT22;10181;48.072;9.884;2023-02-28T01:31:38;-2.00;99.90
20041;DHT22;10181;48.072;9.884;2023-02-28T01:34:04;-2.00;99.90
20041;DHT22;10181;48.072;9.884;2023-02-28T01:36:29;-2.00;99.90
20041;DHT22;10181;48.072;9.884;2023-02-28T01:38:55;-2.00;99.90
20041;DHT22;10181;48.072;9.884;2023-02-28T01:41:28;-2.00;99.90
20041;DHT22;10181;48.072;9.884;2023-02-28T01:46:19;-1.90;99.90
20041;DHT22;10181;48.072;9.884;2023-02-28T01:48:58;-1.90;99.90
20041;DHT22;10181;48.072;9.884;2023-02-28T01:51:45;-1.90;99.90
20041;DHT22;10181;48.072;9.884;2023-02-28T01:54:21;-2.00;99.90
20041;DHT22;10181;48.072;9.884;2023-02-28T01:56:53;-1.90;99.90
20041;DHT22;10181;48.072;9.884;2023-02-28T01:59:30;-1.90;99.90
20041;DHT22;10181;48.072;9.884;2023-02-28T02:01:57;-1.90;99.90
20041;DHT22;10181;48.072;9.884;2023-02-28T02:04:26;-1.90;99.90
20041;DHT22;10181;48.072;9.884;2023-02-28T02:06:52;-1.90;99.90
20041;DHT22;10181;48.072;9.884;2023-02-28T02:09:18;-1.90;99.90
20041;DHT22;10181;48.072;9.884;2023-02-28T02:11:44;-1.90;99.90
20041;DHT22;10181;48.072;9.884;2023-02-28T02:36:46;-1.90;99.90
20041;DHT22;10181;48.072;9.884;2023-02-28T02:39:17;-1.90;99.90
20041;DHT22;10181;48.072;9.884;2023-02-28T02:44:40;-1.90;99.90
20041;DHT22;10181;48.072;9.884;2023-02-28T02:47:13;-1.80;99.90
20041;DHT22;10181;48.072;9.884;2023-02-28T02:49:43;-1.80;99.90
20041;DHT22;10181;48.072;9.884;2023-02-28T02:52:13;-1.80;99.90
20041;DHT22;10181;48.072;9.884;2023-02-28T02:54:43;-1.90;99.90
20041;DHT22;10181;48.072;9.884;2023-02-28T02:58:15;-1.90;99.90
20041;DHT22;10181;48.072;9.884;2023-02-28T03:00:18;-1.90;99.90
20041;DHT22;10181;48.072;9.884;2023-02-28T03:02:46;-1.90;99.90
20041;DHT22;10181;48.072;9.884;2023-02-28T03:05:23;-1.80;99.90
20041;DHT22;10181;48.072;9.884;2023-02-28T03:07:49;-1.80;99.90
20041;DHT22;10181;48.072;9.884;2023-02-28T03:10:37;-1.90;99.90
20041;DHT22;10181;48.072;9.884;2023-02-28T03:15:53;-1.90;99.90
20041;DHT22;10181;48.072;9.884;2023-02-28T03:18:34;-2.00;99.90
20041;DHT22;10181;48.072;9.884;2023-02-28T03:23:48;-1.90;99.90
20041;DHT22;10181;48.072;9.884;2023-02-28T03:26:23;-1.90;99.90
20041;DHT22;10181;48.072;9.884;2023-02-28T03:32:59;-2.00;99.90
20041;DHT22;10181;48.072;9.884;2023-02-28T03:37:38;-2.00;99.90
20041;DHT22;10181;48.072;9.884;2023-02-28T03:40:17;-1.90;99.90
20041;DHT22;10181;48.072;9.884;2023-02-28T03:42:48;-1.90;99.90
20041;DHT22;10181;48.072;9.884;2023-02-28T03:45:21;-1.90;99.90
20041;DHT22;10181;48.072;9.884;2023-02-28T03:50:37;-2.00;99.90
20041;DHT22;10181;48.072;9.884;2023-02-28T03:55:49;-2.00;99.90
20041;DHT22;10181;48.072;9.884;2023-02-28T03:58:30;-2.00;99.90
20041;DHT22;10181;48.072;9.884;2023-02-28T04:01:23;-2.00;99.90
20041;DHT22;10181;48.072;9.884;2023-02-28T04:03:51;-2.00;99.90
20041;DHT22;10181;48.072;9.884;2023-02-28T04:06:19;-2.00;99.90
20041;DHT22;10181;48.072;9.884;2023-02-28T04:08:46;-2.00;99.90
20041;DHT22;10181;48.072;9.884;2023-02-28T04:13:40;-2.00;99.90
20041;DHT22;10181;48.072;9.884;2023-02-28T04:16:09;-2.10;99.90
20041;DHT22;10181;48.072;9.884;2023-02-28T04:18:38;-2.10;99.90
20041;DHT22;10181;48.072;9.884;2023-02-28T04:21:04;-2.20;99.90
20041;DHT22;10181;48.072;9.884;2023-02-28T04:23:30;-2.10;99.90
20041;DHT22;10181;48.072;9.884;2023-02-28T04:25:56;-2.10;99.90
20041;DHT22;10181;48.072;9.884;2023-02-28T04:28:22;-2.10;99.90
20041;DHT22;10181;48.072;9.884;2023-02-28T04:30:47;-2.10;99.90
20041;DHT22;10181;48.072;9.884;2023-02-28T04:33:13;-2.10;99.90
20041;DHT22;10181;48.072;9.884;2023-02-28T04:35:38;-2.20;99.90
20041;DHT22;10181;48.072;9.884;2023-02-28T04:38:04;-2.20;99.90
20041;DHT22;10181;48.072;9.884;2023-02-28T04:40:29;-2.30;99.90
20041;DHT22;10181;48.072;9.884;2023-02-28T04:42:55;-2.30;99.90
20041;DHT22;10181;48.072;9.884;2023-02-28T04:45:21;-2.30;99.90
20041;DHT22;10181;48.072;9.884;2023-02-28T04:47:46;-2.30;99.90
20041;DHT22;10181;48.072;9.884;2023-02-28T04:50:12;-2.40;99.90
20041;DHT22;10181;48.072;9.884;2023-02-28T04:52:37;-2.40;99.90
20041;DHT22;10181;48.072;9.884;2023-02-28T04:55:03;-2.50;99.90
20041;DHT22;10181;48.072;9.884;2023-02-28T04:57:29;-2.50;99.90
20041;DHT22;10181;48.072;9.884;2023-02-28T04:59:55;-2.50;99.90
20041;DHT22;10181;48.072;9.884;2023-02-28T05:02:20;-2.50;99.90
20041;DHT22;10181;48.072;9.884;2023-02-28T05:04:46;-2.50;99.90
20041;DHT22;10181;48.072;9.884;2023-02-28T05:07:12;-2.40;99.90
20041;DHT22;10181;48.072;9.884;2023-02-28T05:09:37;-2.40;99.90
20041;DHT22;10181;48.072;9.884;2023-02-28T05:12:03;-2.40;99.90
20041;DHT22;10181;48.072;9.884;2023-02-28T05:14:28;-2.40;99.90
20041;DHT22;10181;48.072;9.884;2023-02-28T05:16:54;-2.40;99.90
20041;DHT22;10181;48.072;9.884;2023-02-28T05:19:20;-2.40;99.90
20041;DHT22;10181;48.072;9.884;2023-02-28T05:21:52;-2.40;99.90
20041;DHT22;10181;48.072;9.884;2023-02-28T05:24:18;-2.40;99.90
20041;DHT22;10181;48.072;9.884;2023-02-28T05:26:50;-2.40;99.90
20041;DHT22;10181;48.072;9.884;2023-02-28T05:29:17;-2.40;99.90
20041;DHT22;10181;48.072;9.884;2023-02-28T05:31:42;-2.50;99.90
20041;DHT22;10181;48.072;9.884;2023-02-28T05:34:08;-2.50;99.90
20041;DHT22;10181;48.072;9.884;2023-02-28T05:36:38;-2.50;99.90
20041;DHT22;10181;48.072;9.884;2023-02-28T05:39:06;-2.50;99.90
20041;DHT22;10181;48.072;9.884;2023-02-28T05:41:32;-2.50;99.90
20041;DHT22;10181;48.072;9.884;2023-02-28T05:43:58;-2.50;99.90
20041;DHT22;10181;48.072;9.884;2023-02-28T05:46:25;-2.50;99.90
20041;DHT22;10181;48.072;9.884;2023-02-28T05:48:50;-2.50;99.90
20041;DHT22;10181;48.072;9.884;2023-02-28T05:51:17;-2.50;99.90
20041;DHT22;10181;48.072;9.884;2023-02-28T05:53:43;-2.50;99.90
20041;DHT22;10181;48.072;9.884;2023-02-28T05:56:08;-2.50;99.90
20041;DHT22;10181;48.072;9.884;2023-02-28T05:58:34;-2.50;99.90
20041;DHT22;10181;48.072;9.884;2023-02-28T06:01:18;-2.40;99.90
20041;DHT22;10181;48.072;9.884;2023-02-28T06:03:44;-2.40;99.90
20041;DHT22;10181;48.072;9.884;2023-02-28T06:06:10;-2.40;99.90
20041;DHT22;10181;48.072;9.884;2023-02-28T06:08:35;-2.40;99.90
20041;DHT22;10181;48.072;9.884;2023-02-28T06:11:03;-2.40;99.90
20041;DHT22;10181;48.072;9.884;2023-02-28T06:13:29;-2.40;99.90
20041;DHT22;10181;48.072;9.884;2023-02-28T06:15:55;-2.50;99.90
20041;DHT22;10181;48.072;9.884;2023-02-28T06:18:20;-2.50;99.90
20041;DHT22;10181;48.072;9.884;2023-02-28T06:20:55;-2.50;99.90
20041;DHT22;10181;48.072;9.884;2023-02-28T06:23:21;-2.50;99.90
20041;DHT22;10181;48.072;9.884;2023-02-28T06:25:47;-2.50;99.90
20041;DHT22;10181;48.072;9.884;2023-02-28T06:28:14;-2.40;99.90
20041;DHT22;10181;48.072;9.884;2023-02-28T06:30:40;-2.40;99.90
20041;DHT22;10181;48.072;9.884;2023-02-28T06:33:06;-2.40;99.90
20041;DHT22;10181;48.072;9.884;2023-02-28T06:35:31;-2.40;99.90
20041;DHT22;10181;48.072;9.884;2023-02-28T06:37:57;-2.40;99.90
20041;DHT22;10181;48.072;9.884;2023-02-28T06:40:23;-2.40;99.90
20041;DHT22;10181;48.072;9.884;2023-02-28T06:42:48;-2.40;99.90
20041;DHT22;10181;48.072;9.884;2023-02-28T06:45:14;-2.40;99.90
20041;DHT22;10181;48.072;9.884;2023-02-28T06:47:40;-2.40;99.90
20041;DHT22;10181;48.072;9.884;2023-02-28T06:50:08;-2.40;99.90
20041;DHT22;10181;48.072;9.884;2023-02-28T06:52:34;-2.40;99.90
20041;DHT22;10181;48.072;9.884;2023-02-28T06:55:04;-2.40;99.90
20041;DHT22;10181;48.072;9.884;2023-02-28T06:57:30;-2.40;99.90
20041;DHT22;10181;48.072;9.884;2023-02-28T06:59:58;-2.40;99.90
20041;DHT22;10181;48.072;9.884;2023-02-28T07:02:24;-2.30;99.90
20041;DHT22;10181;48.072;9.884;2023-02-28T07:04:49;-2.30;99.90
20041;DHT22;10181;48.072;9.884;2023-02-28T07:07:15;-2.40;99.90
20041;DHT22;10181;48.072;9.884;2023-02-28T07:09:41;-2.30;99.90
20041;DHT22;10181;48.072;9.884;2023-02-28T07:12:06;-2.30;99.90
20041;DHT22;10181;48.072;9.884;2023-02-28T07:14:32;-2.30;99.90
20041;DHT22;10181;48.072;9.884;2023-02-28T07:16:57;-2.30;99.90
20041;DHT22;10181;48.072;9.884;2023-02-28T07:19:23;-2.30;99.90
20041;DHT22;10181;48.072;9.884;2023-02-28T07:21:49;-2.20;99.90
20041;DHT22;10181;48.072;9.884;2023-02-28T07:24:14;-2.20;99.90
20041;DHT22;10181;48.072;9.884;2023-02-28T07:26:41;-2.20;99.90
20041;DHT22;10181;48.072;9.884;2023-02-28T07:29:07;-2.10;99.90
20041;DHT22;10181;48.072;9.884;2023-02-28T07:31:32;-2.10;99.90
20041;DHT22;10181;48.072;9.884;2023-02-28T07:33:58;-2.10;99.90
20041;DHT22;10181;48.072;9.884;2023-02-28T07:36:23;-2.00;99.90
20041;DHT22;10181;48.072;9.884;2023-02-28T07:38:49;-1.90;99.90
20041;DHT22;10181;48.072;9.884;2023-02-28T07:41:19;-2.00;99.90
20041;DHT22;10181;48.072;9.884;2023-02-28T07:43:45;-1.90;99.90
20041;DHT22;10181;48.072;9.884;2023-02-28T07:46:13;-2.00;99.90
20041;DHT22;10181;48.072;9.884;2023-02-28T07:48:43;-1.90;99.90
20041;DHT22;10181;48.072;9.884;2023-02-28T07:51:09;-1.80;99.90
20041;DHT22;10181;48.072;9.884;2023-02-28T07:53:35;-1.80;99.90
20041;DHT22;10181;48.072;9.884;2023-02-28T07:56:02;-1.90;99.90
20041;DHT22;10181;48.072;9.884;2023-02-28T07:58:29;-1.90;99.90
20041;DHT22;10181;48.072;9.884;2023-02-28T08:00:56;-1.90;99.90
20041;DHT22;10181;48.072;9.884;2023-02-28T08:03:23;-1.90;99.90
20041;DHT22;10181;48.072;9.884;2023-02-28T08:05:49;-1.80;99.90
20041;DHT22;10181;48.072;9.884;2023-02-28T08:08:15;-1.80;99.90
20041;DHT22;10181;48.072;9.884;2023-02-28T08:10:42;-1.90;99.90
20041;DHT22;10181;48.072;9.884;2023-02-28T08:13:07;-1.80;99.90
20041;DHT22;10181;48.072;9.884;2023-02-28T08:15:33;-1.80;99.90
20041;DHT22;10181;48.072;9.884;2023-02-28T08:17:59;-1.70;99.90
20041;DHT22;10181;48.072;9.884;2023-02-28T08:20:25;-1.80;99.90
20041;DHT22;10181;48.072;9.884;2023-02-28T08:22:51;-1.80;99.90
20041;DHT22;10181;48.072;9.884;2023-02-28T08:25:17;-1.80;99.90
20041;DHT22;10181;48.072;9.884;2023-02-28T08:27:43;-1.80;99.90
20041;DHT22;10181;48.072;9.884;2023-02-28T08:30:13;-1.80;99.90
20041;DHT22;10181;48.072;9.884;2023-02-28T08:32:39;-1.70;99.90
20041;DHT22;10181;48.072;9.884;2023-02-28T08:35:05;-1.70;99.90
20041;DHT22;10181;48.072;9.884;2023-02-28T08:37:31;-1.60;99.90
20041;DHT22;10181;48.072;9.884;2023-02-28T08:39:57;-1.60;99.90
20041;DHT22;10181;48.072;9.884;2023-02-28T08:42:23;-1.50;99.90
20041;DHT22;10181;48.072;9.884;2023-02-28T08:44:49;-1.60;99.90
20041;DHT22;10181;48.072;9.884;2023-02-28T08:47:15;-1.60;99.90
20041;DHT22;10181;48.072;9.884;2023-02-28T08:49:40;-1.50;99.90
20041;DHT22;10181;48.072;9.884;2023-02-28T08:52:06;-1.50;99.90
20041;DHT22;10181;48.072;9.884;2023-02-28T08:54:32;-1.50;99.90
20041;DHT22;10181;48.072;9.884;2023-02-28T08:56:58;-1.40;99.90
20041;DHT22;10181;48.072;9.884;2023-02-28T08:59:24;-1.30;99.90
20041;DHT22;10181;48.072;9.884;2023-02-28T09:01:49;-1.30;99.90
20041;DHT22;10181;48.072;9.884;2023-02-28T09:04:15;-1.30;99.90
20041;DHT22;10181;48.072;9.884;2023-02-28T09:06:40;-1.40;99.90
20041;DHT22;10181;48.072;9.884;2023-02-28T09:09:06;-1.30;99.90
20041;DHT22;10181;48.072;9.884;2023-02-28T09:11:33;-1.40;99.90
20041;DHT22;10181;48.072;9.884;2023-02-28T09:14:00;-1.40;99.90
20041;DHT22;10181;48.072;9.884;2023-02-28T09:16:29;-1.50;99.90
20041;DHT22;10181;48.072;9.884;2023-02-28T09:18:57;-1.50;99.90
20041;DHT22;10181;48.072;9.884;2023-02-28T09:21:23;-1.50;99.90
20041;DHT22;10181;48.072;9.884;2023-02-28T09:23:50;-1.50;99.90
20041;DHT22;10181;48.072;9.884;2023-02-28T09:26:25;-1.40;99.90
20041;DHT22;10181;48.072;9.884;2023-02-28T09:28:51;-1.30;99.90
20041;DHT22;10181;48.072;9.884;2023-02-28T09:31:20;-1.30;99.90
20041;DHT22;10181;48.072;9.884;2023-02-28T09:33:50;-1.30;99.90
20041;DHT22;10181;48.072;9.884;2023-02-28T09:36:17;-1.20;99.90
20041;DHT22;10181;48.072;9.884;2023-02-28T09:38:43;-1.20;99.90
20041;DHT22;10181;48.072;9.884;2023-02-28T09:41:19;-1.30;99.90
20041;DHT22;10181;48.072;9.884;2023-02-28T09:43:57;-1.30;99.90
20041;DHT22;10181;48.072;9.884;2023-02-28T09:46:37;-1.30;99.90
20041;DHT22;10181;48.072;9.884;2023-02-28T09:49:10;-1.10;99.90
20041;DHT22;10181;48.072;9.884;2023-02-28T09:52:01;-1.00;99.90
20041;DHT22;10181;48.072;9.884;2023-02-28T09:54:30;-0.90;99.90
20041;DHT22;10181;48.072;9.884;2023-02-28T09:56:58;-0.90;99.90
20041;DHT22;10181;48.072;9.884;2023-02-28T10:04:59;-0.80;99.90
20041;DHT22;10181;48.072;9.884;2023-02-28T10:10:15;-0.90;99.90
20041;DHT22;10181;48.072;9.884;2023-02-28T10:12:44;-1.00;99.90
20041;DHT22;10181;48.072;9.884;2023-02-28T10:15:15;-0.90;99.90
20041;DHT22;10181;48.072;9.884;2023-02-28T10:17:44;-0.80;99.90
20041;DHT22;10181;48.072;9.884;2023-02-28T10:20:15;-0.80;99.90
20041;DHT22;10181;48.072;9.884;2023-02-28T10:25:25;-0.90;99.90
20041;DHT22;10181;48.072;9.884;2023-02-28T10:28:01;-0.90;99.90
20041;DHT22;10181;48.072;9.884;2023-02-28T10:30:27;-0.80;99.90
20041;DHT22;10181;48.072;9.884;2023-02-28T10:32:53;-0.80;99.90
20041;DHT22;10181;48.072;9.884;2023-02-28T10:35:24;-0.80;99.90
20041;DHT22;10181;48.072;9.884;2023-02-28T10:37:56;-0.80;99.90
20041;DHT22;10181;48.072;9.884;2023-02-28T10:45:34;-0.80;99.90
20041;DHT22;10181;48.072;9.884;2023-02-28T10:50:50;-0.70;99.90
20041;DHT22;10181;48.072;9.884;2023-02-28T10:56:00;-0.60;99.90
20041;DHT22;10181;48.072;9.884;2023-02-28T11:03:43;-0.60;99.90
20041;DHT22;10181;48.072;9.884;2023-02-28T11:06:33;-0.60;99.90
20041;DHT22;10181;48.072;9.884;2023-02-28T11:09:56;-0.50;99.90
20041;DHT22;10181;48.072;9.884;2023-02-28T11:12:17;-0.50;99.90
20041;DHT22;10181;48.072;9.884;2023-02-28T11:14:53;-0.50;99.90
20041;DHT22;10181;48.072;9.884;2023-02-28T11:17:29;-0.50;99.90
20041;DHT22;10181;48.072;9.884;2023-02-28T11:20:05;-0.50;99.90
20041;DHT22;10181;48.072;9.884;2023-02-28T11:22:39;-0.50;99.90
20041;DHT22;10181;48.072;9.884;2023-02-28T11:25:29;-0.60;99.90
20041;DHT22;10181;48.072;9.884;2023-02-28T11:28:03;-0.60;99.90
20041;DHT22;10181;48.072;9.884;2023-02-28T11:30:38;-0.50;99.90
20041;DHT22;10181;48.072;9.884;2023-02-28T11:33:28;-0.40;99.90
20041;DHT22;10181;48.072;9.884;2023-02-28T11:35:58;-0.40;99.90
20041;DHT22;10181;48.072;9.884;2023-02-28T11:38:26;-0.40;99.90
20041;DHT22;10181;48.072;9.884;2023-02-28T11:55:03;-0.30;99.90
20041;DHT22;10181;48.072;9.884;2023-02-28T12:06:30;0.00;99.90
20041;DHT22;10181;48.072;9.884;2023-02-28T12:09:28;0.00;99.90
20041;DHT22;10181;48.072;9.884;2023-02-28T12:24:55;0.40;99.90
20041;DHT22;10181;48.072;9.884;2023-02-28T12:27:28;0.40;99.90
20041;DHT22;10181;48.072;9.884;2023-02-28T12:30:21;0.60;99.90
20041;DHT22;10181;48.072;9.884;2023-02-28T12:33:06;0.80;99.90
20041;DHT22;10181;48.072;9.884;2023-02-28T12:35:41;0.60;99.90
20041;DHT22;10181;48.072;9.884;2023-02-28T12:38:27;0.50;99.90
20041;DHT22;10181;48.072;9.884;2023-02-28T12:43:31;1.30;99.90
20041;DHT22;10181;48.072;9.884;2023-02-28T12:46:11;2.30;99.90
20041;DHT22;10181;48.072;9.884;2023-02-28T12:48:44;3.30;99.90
20041;DHT22;10181;48.072;9.884;2023-02-28T12:51:12;4.10;99.90
20041;DHT22;10181;48.072;9.884;2023-02-28T12:54:06;4.20;99.90
20041;DHT22;10181;48.072;9.884;2023-02-28T12:56:54;4.00;99.90
20041;DHT22;10181;48.072;9.884;2023-02-28T13:02:22;4.10;99.90
20041;DHT22;10181;48.072;9.884;2023-02-28T13:07:54;4.60;99.90
20041;DHT22;10181;48.072;9.884;2023-02-28T13:10:23;5.00;99.90
20041;DHT22;10181;48.072;9.884;2023-02-28T13:12:51;5.30;99.90
20041;DHT22;10181;48.072;9.884;2023-02-28T13:15:24;5.70;99.90
20041;DHT22;10181;48.072;9.884;2023-02-28T13:17:53;5.90;99.90
20041;DHT22;10181;48.072;9.884;2023-02-28T13:20:24;6.00;99.90
20041;DHT22;10181;48.072;9.884;2023-02-28T13:22:53;6.10;99.90
20041;DHT22;10181;48.072;9.884;2023-02-28T13:27:49;6.20;99.90
20041;DHT22;10181;48.072;9.884;2023-02-28T13:35:45;5.70;99.90
20041;DHT22;10181;48.072;9.884;2023-02-28T13:38:36;5.50;99.90
20041;DHT22;10181;48.072;9.884;2023-02-28T13:51:52;5.60;99.90
20041;DHT22;10181;48.072;9.884;2023-02-28T14:00:15;6.00;99.90
20041;DHT22;10181;48.072;9.884;2023-02-28T14:05:23;5.90;99.90
20041;DHT22;10181;48.072;9.884;2023-02-28T14:07:57;5.80;99.90
20041;DHT22;10181;48.072;9.884;2023-02-28T14:10:25;5.90;99.90
20041;DHT22;10181;48.072;9.884;2023-02-28T14:20:43;6.00;99.90
20041;DHT22;10181;48.072;9.884;2023-02-28T14:23:38;5.80;99.90
20041;DHT22;10181;48.072;9.884;2023-02-28T14:31:13;4.50;99.90
20041;DHT22;10181;48.072;9.884;2023-02-28T14:33:48;4.30;99.90
20041;DHT22;10181;48.072;9.884;2023-02-28T14:36:38;4.00;99.90
20041;DHT22;10181;48.072;9.884;2023-02-28T14:39:13;3.90;99.90
20041;DHT22;10181;48.072;9.884;2023-02-28T14:41:42;3.80;99.90
20041;DHT22;10181;48.072;9.884;2023-02-28T14:44:19;3.50;99.90
20041;DHT22;10181;48.072;9.884;2023-02-28T14:46:50;3.50;99.90
20041;DHT22;10181;48.072;9.884;2023-02-28T14:49:28;3.60;99.90
20041;DHT22;10181;48.072;9.884;2023-02-28T14:52:12;3.70;99.90
20041;DHT22;10181;48.072;9.884;2023-02-28T14:54:40;3.90;99.90
20041;DHT22;10181;48.072;9.884;2023-02-28T14:57:18;3.90;99.90
20041;DHT22;10181;48.072;9.884;2023-02-28T14:59:45;3.70;99.90
20041;DHT22;10181;48.072;9.884;2023-02-28T15:02:24;3.50;99.90
20041;DHT22;10181;48.072;9.884;2023-02-28T15:05:00;3.40;99.90
20041;DHT22;10181;48.072;9.884;2023-02-28T15:07:26;3.30;99.90
20041;DHT22;10181;48.072;9.884;2023-02-28T15:15:22;3.10;99.90
20041;DHT22;10181;48.072;9.884;2023-02-28T15:17:55;3.10;99.90
20041;DHT22;10181;48.072;9.884;2023-02-28T15:20:22;3.10;99.90
20041;DHT22;10181;48.072;9.884;2023-02-28T15:22:50;3.00;99.90
20041;DHT22;10181;48.072;9.884;2023-02-28T15:25:20;3.10;99.90
20041;DHT22;10181;48.072;9.884;2023-02-28T15:27:53;3.10;99.90
20041;DHT22;10181;48.072;9.884;2023-02-28T15:30:31;3.10;99.90
20041;DHT22;10181;48.072;9.884;2023-02-28T15:35:41;2.90;99.90
20041;DHT22;10181;48.072;9.884;2023-02-28T15:38:17;2.80;99.90
20041;DHT22;10181;48.072;9.884;2023-02-28T15:40:45;2.70;99.90
20041;DHT22;10181;48.072;9.884;2023-02-28T15:43:25;2.60;99.90
20041;DHT22;10181;48.072;9.884;2023-02-28T15:46:03;2.50;99.90
20041;DHT22;10181;48.072;9.884;2023-02-28T15:48:54;2.50;99.90
20041;DHT22;10181;48.072;9.884;2023-02-28T15:51:29;2.50;99.90
20041;DHT22;10181;48.072;9.884;2023-02-28T15:54:08;2.60;99.90
20041;DHT22;10181;48.072;9.884;2023-02-28T15:56:39;2.60;99.90
20041;DHT22;10181;48.072;9.884;2023-02-28T15:59:14;2.50;99.90
20041;DHT22;10181;48.072;9.884;2023-02-28T16:01:40;2.50;99.90
20041;DHT22;10181;48.072;9.884;2023-02-28T16:04:17;2.60;99.90
20041;DHT22;10181;48.072;9.884;2023-02-28T16:06:44;2.50;99.90
20041;DHT22;10181;48.072;9.884;2023-02-28T16:09:15;2.60;99.90
20041;DHT22;10181;48.072;9.884;2023-02-28T16:11:47;2.70;99.90
20041;DHT22;10181;48.072;9.884;2023-02-28T16:14:16;2.70;99.90
20041;DHT22;10181;48.072;9.884;2023-02-28T16:16:45;2.80;99.90
20041;DHT22;10181;48.072;9.884;2023-02-28T16:19:11;2.80;99.90
20041;DHT22;10181;48.072;9.884;2023-02-28T16:21:37;3.00;99.90
20041;DHT22;10181;48.072;9.884;2023-02-28T16:24:02;3.30;99.90
20041;DHT22;10181;48.072;9.884;2023-02-28T16:26:28;3.60;99.90
20041;DHT22;10181;48.072;9.884;2023-02-28T16:28:54;3.80;99.90
20041;DHT22;10181;48.072;9.884;2023-02-28T16:31:20;4.00;99.90
20041;DHT22;10181;48.072;9.884;2023-02-28T16:33:46;4.00;99.90
20041;DHT22;10181;48.072;9.884;2023-02-28T16:36:20;4.00;99.90
20041;DHT22;10181;48.072;9.884;2023-02-28T16:38:46;3.90;99.90
20041;DHT22;10181;48.072;9.884;2023-02-28T16:41:16;3.70;99.90
20041;DHT22;10181;48.072;9.884;2023-02-28T16:43:45;3.60;99.90
20041;DHT22;10181;48.072;9.884;2023-02-28T16:46:12;3.50;99.90
20041;DHT22;10181;48.072;9.884;2023-02-28T16:48:38;3.30;99.90
20041;DHT22;10181;48.072;9.884;2023-02-28T16:51:15;3.10;99.90
20041;DHT22;10181;48.072;9.884;2023-02-28T16:53:41;3.00;99.90
20041;DHT22;10181;48.072;9.884;2023-02-28T16:56:20;2.70;99.90
20041;DHT22;10181;48.072;9.884;2023-02-28T16:58:46;2.40;99.90
20041;DHT22;10181;48.072;9.884;2023-02-28T17:01:12;2.20;99.90
20041;DHT22;10181;48.072;9.884;2023-02-28T17:03:38;2.00;99.90
20041;DHT22;10181;48.072;9.884;2023-02-28T17:06:08;1.80;99.90
20041;DHT22;10181;48.072;9.884;2023-02-28T17:08:38;1.60;99.90
20041;DHT22;10181;48.072;9.884;2023-02-28T17:11:04;1.50;99.90
20041;DHT22;10181;48.072;9.884;2023-02-28T17:13:30;1.40;99.90
20041;DHT22;10181;48.072;9.884;2023-02-28T17:15:55;1.20;99.90
20041;DHT22;10181;48.072;9.884;2023-02-28T17:18:21;1.10;99.90
20041;DHT22;10181;48.072;9.884;2023-02-28T17:20:48;1.00;99.90
20041;DHT22;10181;48.072;9.884;2023-02-28T17:23:13;0.90;99.90
20041;DHT22;10181;48.072;9.884;2023-02-28T17:25:39;0.80;99.90
20041;DHT22;10181;48.072;9.884;2023-02-28T17:28:04;0.70;99.90
20041;DHT22;10181;48.072;9.884;2023-02-28T17:30:33;0.60;99.90
20041;DHT22;10181;48.072;9.884;2023-02-28T17:32:58;0.60;99.90
20041;DHT22;10181;48.072;9.884;2023-02-28T17:35:24;0.60;99.90
20041;DHT22;10181;48.072;9.884;2023-02-28T17:37:52;0.60;99.90
20041;DHT22;10181;48.072;9.884;2023-02-28T17:40:22;0.60;99.90
20041;DHT22;10181;48.072;9.884;2023-02-28T17:42:49;0.60;99.90
20041;DHT22;10181;48.072;9.884;2023-02-28T17:45:15;0.50;99.90
20041;DHT22;10181;48.072;9.884;2023-02-28T17:47:42;0.50;99.90
20041;DHT22;10181;48.072;9.884;2023-02-28T17:50:14;0.40;99.90
20041;DHT22;10181;48.072;9.884;2023-02-28T17:52:40;0.40;99.90
20041;DHT22;10181;48.072;9.884;2023-02-28T17:55:06;0.30;99.90
20041;DHT22;10181;48.072;9.884;2023-02-28T17:57:32;0.30;99.90
20041;DHT22;10181;48.072;9.884;2023-02-28T17:59:57;0.30;99.90
20041;DHT22;10181;48.072;9.884;2023-02-28T18:02:23;0.30;99.90
20041;DHT22;10181;48.072;9.884;2023-02-28T18:04:49;0.30;99.90
20041;DHT22;10181;48.072;9.884;2023-02-28T18:07:14;0.20;99.90
20041;DHT22;10181;48.072;9.884;2023-02-28T18:09:40;0.20;99.90
20041;DHT22;10181;48.072;9.884;2023-02-28T18:12:06;0.10;99.90
20041;DHT22;10181;48.072;9.884;2023-02-28T18:14:31;0.10;99.90
20041;DHT22;10181;48.072;9.884;2023-02-28T18:16:57;0.00;99.90
20041;DHT22;10181;48.072;9.884;2023-02-28T18:19:23;0.00;99.90
20041;DHT22;10181;48.072;9.884;2023-02-28T18:21:51;-0.10;99.90
20041;DHT22;10181;48.072;9.884;2023-02-28T18:24:18;-0.10;99.90
20041;DHT22;10181;48.072;9.884;2023-02-28T18:26:44;-0.10;99.90
20041;DHT22;10181;48.072;9.884;2023-02-28T18:29:22;-0.10;99.90
20041;DHT22;10181;48.072;9.884;2023-02-28T18:31:49;-0.20;99.90
20041;DHT22;10181;48.072;9.884;2023-02-28T18:34:15;-0.20;99.90
20041;DHT22;10181;48.072;9.884;2023-02-28T18:36:41;-0.20;99.90